Accueil
METAR-TAF:

METAR-TAF

Aéroports :

Dickinson, Dakota du Nord, États-Unis

latitude: 46-47-50N, longitude: 102-48-07W, altitude: 790 m

Observation

Le bulletin a été fait il y a 29 minutes, à 23:56 UTC
Vent 6 kt de sud
Température -18°C
Humidité 77%
Pression 1031 hPa
Visibilité: 16.1 km
Ciel clair

METAR: KDIK 112356Z AUTO 18006KT 10SM CLR M18/M21 A3046 RMK AO2 SLP383 T11781206 11133 21178 58020

Heure: 17:25 (00:25 UTC)

Prévision

Le bulletin a été fait il y a 47 minutes, à 23:38 UTC
Prévision valable du 12 à 00 UTC au 12 à 24 UTC
Vent 6 kt de sud-ouest
Visibilité: 10 km
Ciel clair
A partir de 12 à 1200 UTC
Vent 10 kt de sud
Visibilité: 10 km
Ciel clair
A partir de 12 à 1600 UTC
Vent 11 kt de ouest/sud-ouest avec des rafales jusqu'à 19 kt
Visibilité: 10 km
Ciel couvert à une hauteur de 25000 ft

TAF: KDIK 112338Z 1200/1224 22006KT P6SM SKC FM121200 19010KT P6SM SKC WS020/27035KT FM121600 25011G19KT P6SM OVC250

Observations et prévisions météorologiques de plus de 4000 aéroports (messages METAR et TAF).

Les stations disponibles sont représentées par des disques jaunes et rouges sur la carte.

Passer la souris dessus pour voir le nom de la station.

Cliquer dessus pour voir les observations et prévisions météorologiques.

Pour changer de carte: cliquez sur les boutons verts avec une croix noire pour zoomer, sur le bouton vert avec un tiret pour effectuer un zoom arrière, ou sur les flèches vertes pour les cartes adjacentes.


METAR-TAF: